Time;durP1;ratioP1;P1;durP2;ratioP2;P2;SDS_P1;SDS_P2;PMS_P1;PMS_P2;Temp;Humidity;BMP_temperature;BMP_pressure;BME280_temperature;BME280_humidity;BME280_pressure;Samples;Min_cycle;Max_cycle;Signal;HPM_P1;HPM_P2
2023/07/04 00:00:13;;;;;;;8.55;4.22;;;27.10;99.90;;;;;;1862231;76;21145;-81
2023/07/04 00:02:55;;;;;;;7.40;4.35;;;27.10;99.90;;;;;;1866870;75;21071;-82
2023/07/04 00:05:28;;;;;;;7.92;4.15;;;27.10;99.90;;;;;;1857223;76;21659;-83
2023/07/04 00:08:02;;;;;;;6.15;4.10;;;27.10;99.90;;;;;;1813115;77;21081;-84
2023/07/04 00:10:36;;;;;;;10.25;4.00;;;27.10;99.90;;;;;;1896006;74;21076;-82
2023/07/04 00:13:12;;;;;;;12.88;5.08;;;27.10;99.90;;;;;;1850214;76;21437;-81
2023/07/04 00:15:52;;;;;;;10.15;4.90;;;27.10;99.90;;;;;;1848675;76;21052;-78
2023/07/04 00:18:29;;;;;;;10.53;4.53;;;27.10;99.90;;;;;;1844370;76;21090;-82
2023/07/04 00:21:07;;;;;;;9.35;4.80;;;27.10;99.90;;;;;;1799891;77;21174;-84
2023/07/04 00:23:45;;;;;;;9.60;5.10;;;27.10;99.90;;;;;;1843037;76;21189;-81
2023/07/04 00:26:19;;;;;;;13.65;5.53;;;27.10;99.90;;;;;;1858008;76;21099;-82
2023/07/04 00:28:55;;;;;;;10.08;5.25;;;27.20;99.90;;;;;;1859511;76;21670;-81
2023/07/04 00:31:28;;;;;;;10.03;5.47;;;27.10;99.90;;;;;;1847614;76;21056;-80
2023/07/04 00:34:05;;;;;;;8.45;5.22;;;27.20;99.90;;;;;;1838515;76;21122;-79
2023/07/04 00:36:37;;;;;;;13.83;5.20;;;27.10;99.90;;;;;;1884022;75;21080;-80
2023/07/04 00:39:16;;;;;;;12.45;5.62;;;27.10;99.90;;;;;;1890725;75;21428;-81
2023/07/04 00:41:49;;;;;;;13.38;5.70;;;27.10;99.90;;;;;;1837130;76;21221;-80
2023/07/04 00:44:24;;;;;;;12.07;5.70;;;27.10;99.90;;;;;;1817937;77;21106;-81
2023/07/04 00:47:21;;;;;;;12.45;5.50;;;27.10;99.90;;;;;;1845074;76;21129;-79
2023/07/04 00:50:06;;;;;;;12.13;5.53;;;27.10;99.90;;;;;;1856335;76;21126;-81
2023/07/04 00:52:36;;;;;;;12.73;5.62;;;27.10;99.90;;;;;;1854092;76;21175;-82
2023/07/04 00:55:11;;;;;;;9.40;5.17;;;27.20;99.90;;;;;;1834382;78;21101;-80
2023/07/04 00:57:48;;;;;;;12.05;5.67;;;27.20;99.90;;;;;;1834116;76;21796;-80
2023/07/04 01:00:25;;;;;;;10.90;5.30;;;27.20;99.90;;;;;;1846407;76;21078;-78
2023/07/04 01:03:21;;;;;;;12.20;5.90;;;27.20;99.90;;;;;;1838203;76;21528;-82
2023/07/04 01:06:03;;;;;;;9.30;5.70;;;27.20;99.90;;;;;;1806646;78;21132;-81
2023/07/04 01:08:47;;;;;;;11.30;5.58;;;27.20;99.90;;;;;;1885550;75;21168;-82
2023/07/04 01:11:25;;;;;;;19.23;7.25;;;27.20;99.90;;;;;;1843429;76;21058;-81
2023/07/04 01:13:58;;;;;;;21.68;7.10;;;27.30;99.90;;;;;;1843598;76;21632;-78
2023/07/04 01:16:31;;;;;;;12.58;6.60;;;27.30;99.90;;;;;;1841924;76;21082;-83
2023/07/04 01:19:05;;;;;;;14.25;7.80;;;27.30;99.90;;;;;;1805376;78;21166;-82
2023/07/04 01:21:40;;;;;;;17.07;7.53;;;27.30;99.90;;;;;;1837967;76;21081;-82
2023/07/04 01:24:21;;;;;;;12.30;7.30;;;27.30;99.90;;;;;;1842078;76;21062;-79
2023/07/04 01:26:57;;;;;;;16.90;7.62;;;27.30;99.90;;;;;;1848052;76;21052;-82
2023/07/04 01:29:30;;;;;;;11.53;7.37;;;27.30;99.90;;;;;;1891111;75;21126;-77
2023/07/04 01:32:14;;;;;;;16.25;7.75;;;27.40;99.90;;;;;;1866804;75;21138;-80
2023/07/04 01:34:50;;;;;;;18.98;7.70;;;27.40;99.90;;;;;;1852292;76;21154;-81
2023/07/04 01:37:32;;;;;;;16.37;8.20;;;27.30;99.90;;;;;;1807022;78;21099;-80
2023/07/04 01:40:10;;;;;;;14.90;5.70;;;27.40;99.90;;;;;;1809595;77;21107;-83
2023/07/04 01:42:49;;;;;;;13.43;7.17;;;27.40;99.90;;;;;;1794414;78;21083;-79
2023/07/04 01:45:21;;;;;;;17.77;7.80;;;27.40;99.90;;;;;;1845318;76;21104;-78
2023/07/04 01:47:58;;;;;;;21.45;8.33;;;27.40;99.90;;;;;;1844811;76;21225;-81
2023/07/04 01:50:32;;;;;;;15.43;7.75;;;27.40;99.90;;;;;;1772132;78;21123;-80
2023/07/04 01:53:04;;;;;;;14.78;7.80;;;27.40;99.90;;;;;;1846810;76;21657;-81
2023/07/04 01:55:41;;;;;;;16.85;6.65;;;27.40;99.90;;;;;;1841345;76;21131;-82
2023/07/04 01:58:14;;;;;;;15.25;7.22;;;27.50;99.90;;;;;;1803047;78;21441;-82
2023/07/04 02:01:05;;;;;;;17.60;9.33;;;27.40;99.90;;;;;;1798929;78;21137;-80
2023/07/04 02:03:44;;;;;;;19.27;10.25;;;27.40;99.90;;;;;;1814169;78;21162;-80
2023/07/04 02:06:20;;;;;;;14.05;9.10;;;27.50;99.90;;;;;;1846714;76;21133;-81
2023/07/04 02:08:59;;;;;;;13.03;8.25;;;27.50;99.90;;;;;;1817579;78;21141;-82
2023/07/04 02:11:41;;;;;;;12.15;7.40;;;27.50;99.90;;;;;;1846248;76;21056;-81
2023/07/04 02:14:16;;;;;;;14.28;8.93;;;27.50;99.90;;;;;;1839894;76;21129;-82
2023/07/04 02:16:54;;;;;;;13.10;8.08;;;27.50;99.90;;;;;;1836935;76;21096;-79
2023/07/04 02:19:30;;;;;;;14.50;8.73;;;27.50;99.90;;;;;;1797462;78;21627;-83
2023/07/04 02:22:02;;;;;;;17.45;9.10;;;27.50;99.90;;;;;;1840180;76;21068;-70
2023/07/04 02:24:35;;;;;;;14.23;9.08;;;27.50;99.90;;;;;;1845304;76;21151;-69
2023/07/04 02:27:08;;;;;;;15.50;9.43;;;27.50;99.90;;;;;;1815051;78;21133;-70
2023/07/04 02:29:40;;;;;;;22.52;14.85;;;27.40;99.90;;;;;;1813583;78;21689;-69
2023/07/04 02:32:13;;;;;;;22.90;13.58;;;27.50;99.90;;;;;;1800910;78;21178;-70
2023/07/04 02:34:45;;;;;;;24.35;11.65;;;27.50;99.90;;;;;;1854318;76;21102;-69
2023/07/04 02:37:16;;;;;;;14.25;7.72;;;27.50;99.90;;;;;;1793101;78;21076;-68
2023/07/04 02:39:50;;;;;;;35.38;14.35;;;27.50;99.90;;;;;;1808077;77;21127;-68
2023/07/04 02:42:26;;;;;;;21.93;8.75;;;27.50;99.90;;;;;;1810512;78;21085;-69
2023/07/04 02:44:59;;;;;;;19.32;9.25;;;27.50;99.90;;;;;;1815054;78;21055;-70
2023/07/04 02:47:31;;;;;;;16.62;10.00;;;27.50;99.90;;;;;;1844436;76;21528;-68
2023/07/04 02:50:02;;;;;;;16.82;8.58;;;27.50;99.90;;;;;;1844133;76;21189;-68
2023/07/04 02:52:36;;;;;;;18.67;8.35;;;27.60;99.90;;;;;;1840744;76;21119;-69
2023/07/04 02:55:09;;;;;;;17.37;7.85;;;27.60;99.90;;;;;;1844203;76;21147;-69
2023/07/04 02:57:41;;;;;;;20.55;7.83;;;27.70;99.90;;;;;;1835773;76;21123;-69
2023/07/04 03:00:14;;;;;;;15.90;7.17;;;27.70;99.90;;;;;;1811066;78;21085;-69
2023/07/04 03:02:47;;;;;;;10.78;6.50;;;27.70;99.90;;;;;;1785109;78;21528;-69
2023/07/04 03:05:19;;;;;;;25.25;13.58;;;27.70;99.90;;;;;;1807245;78;21138;-68
2023/07/04 03:07:52;;;;;;;22.27;7.37;;;27.70;99.90;;;;;;1808525;78;21657;-71
2023/07/04 03:10:25;;;;;;;19.92;7.62;;;27.70;99.90;;;;;;1797619;78;21107;-69
2023/07/04 03:12:58;;;;;;;14.07;6.20;;;27.70;99.90;;;;;;1839302;76;21521;-67
2023/07/04 03:15:36;;;;;;;28.10;7.78;;;27.70;99.90;;;;;;1801426;78;21074;-69
2023/07/04 03:18:09;;;;;;;25.68;6.37;;;27.70;99.90;;;;;;1837124;76;21048;-68
2023/07/04 03:20:41;;;;;;;13.83;5.03;;;27.70;99.90;;;;;;1835182;76;21472;-68
2023/07/04 03:23:14;;;;;;;15.38;5.85;;;27.70;99.90;;;;;;1849385;76;21124;-68
2023/07/04 03:25:47;;;;;;;12.75;5.78;;;27.70;99.90;;;;;;1845071;76;21157;-69
2023/07/04 03:28:18;;;;;;;10.70;4.40;;;27.70;99.90;;;;;;1850161;76;21179;-68
2023/07/04 03:30:53;;;;;;;10.28;5.25;;;27.80;99.90;;;;;;1810190;77;21133;-70
2023/07/04 03:33:27;;;;;;;15.38;4.78;;;27.80;99.90;;;;;;1805928;78;21129;-70
2023/07/04 03:36:00;;;;;;;13.68;5.60;;;27.80;99.90;;;;;;1810359;78;21184;-69
2023/07/04 03:38:36;;;;;;;10.03;4.87;;;27.80;99.90;;;;;;1845008;76;21141;-68
2023/07/04 03:41:10;;;;;;;12.60;5.17;;;27.80;99.90;;;;;;1845511;76;21143;-68
2023/07/04 03:43:42;;;;;;;12.73;4.75;;;27.90;99.90;;;;;;1878123;74;21120;-70
2023/07/04 03:46:14;;;;;;;15.63;5.37;;;27.90;99.90;;;;;;1805441;78;21094;-69
2023/07/04 03:48:49;;;;;;;7.20;4.17;;;27.90;99.90;;;;;;1808406;78;21646;-70
2023/07/04 03:51:21;;;;;;;11.63;4.47;;;27.90;99.90;;;;;;1810077;77;21680;-69
2023/07/04 03:53:54;;;;;;;10.40;4.17;;;28.00;99.90;;;;;;1812250;78;21197;-69
2023/07/04 03:56:25;;;;;;;8.08;4.00;;;28.00;99.90;;;;;;1808620;77;21176;-68
2023/07/04 03:58:56;;;;;;;15.93;5.62;;;28.00;99.90;;;;;;1809668;78;21171;-67
2023/07/04 04:01:32;;;;;;;10.72;5.15;;;28.10;99.90;;;;;;1808600;78;21220;-70
2023/07/04 04:04:05;;;;;;;6.25;3.37;;;28.00;99.90;;;;;;1844302;76;21543;-69
2023/07/04 04:06:39;;;;;;;6.92;3.80;;;28.10;99.90;;;;;;1805467;78;21127;-69
2023/07/04 04:09:13;;;;;;;8.53;4.37;;;28.10;99.90;;;;;;1786601;78;21612;-68
2023/07/04 04:11:46;;;;;;;8.23;4.28;;;28.10;99.90;;;;;;1844181;76;21213;-69
2023/07/04 04:14:19;;;;;;;14.35;4.47;;;28.10;99.90;;;;;;1810804;77;21104;-70
2023/07/04 04:16:52;;;;;;;7.95;3.80;;;28.20;99.90;;;;;;1834888;76;21127;-70
2023/07/04 04:19:25;;;;;;;9.43;3.90;;;28.20;99.90;;;;;;1810263;77;21536;-69
2023/07/04 04:21:57;;;;;;;8.33;3.70;;;28.20;99.90;;;;;;1803772;78;21715;-71
2023/07/04 04:24:29;;;;;;;13.65;4.10;;;28.30;99.90;;;;;;1796735;78;21181;-70
2023/07/04 04:27:02;;;;;;;23.90;4.47;;;28.30;99.90;;;;;;1843187;76;21552;-68
2023/07/04 04:29:35;;;;;;;8.03;2.70;;;28.30;99.90;;;;;;1819970;78;21149;-70
2023/07/04 04:32:06;;;;;;;11.30;4.60;;;28.30;99.90;;;;;;1895682;75;21070;-70
2023/07/04 04:34:40;;;;;;;10.63;3.50;;;28.30;99.90;;;;;;1816124;77;21061;-68
2023/07/04 04:37:11;;;;;;;7.83;2.83;;;28.30;99.90;;;;;;1797438;78;21078;-70
2023/07/04 04:39:44;;;;;;;7.85;2.60;;;28.30;99.90;;;;;;1787134;78;21488;-68
2023/07/04 04:42:15;;;;;;;7.72;2.45;;;28.30;99.90;;;;;;1793201;78;21605;-67
2023/07/04 04:44:48;;;;;;;18.67;4.33;;;28.30;99.90;;;;;;1776478;78;21512;-68
2023/07/04 04:47:22;;;;;;;5.58;2.02;;;28.30;99.90;;;;;;1811281;78;21476;-69
2023/07/04 04:49:56;;;;;;;9.47;2.87;;;28.30;99.90;;;;;;1844390;76;21553;-68
2023/07/04 04:52:34;;;;;;;33.18;5.30;;;28.30;99.90;;;;;;1845262;77;21169;-71
2023/07/04 04:55:09;;;;;;;18.75;3.75;;;28.30;99.90;;;;;;1880135;75;21160;-70
2023/07/04 04:57:43;;;;;;;11.80;2.33;;;28.30;99.90;;;;;;1875951;75;21129;-69
2023/07/04 05:00:17;;;;;;;10.05;2.10;;;28.40;99.90;;;;;;1777760;79;21224;-69
2023/07/04 05:02:56;;;;;;;7.67;2.50;;;28.40;99.90;;;;;;1848280;76;21524;-68
2023/07/04 05:05:27;;;;;;;7.55;1.95;;;28.40;99.90;;;;;;1804475;77;21158;-69
2023/07/04 05:08:00;;;;;;;6.20;2.10;;;28.40;99.90;;;;;;1835717;76;21082;-69
2023/07/04 05:10:32;;;;;;;5.78;2.20;;;28.40;99.90;;;;;;1833494;76;21181;-70
2023/07/04 05:13:05;;;;;;;10.00;2.70;;;28.40;99.90;;;;;;1784224;78;21147;-69
2023/07/04 05:15:37;;;;;;;4.47;2.12;;;28.50;99.90;;;;;;1831897;78;21110;-68
2023/07/04 05:18:10;;;;;;;4.45;2.17;;;28.50;99.90;;;;;;1849715;76;21106;-69
2023/07/04 05:20:43;;;;;;;6.80;2.33;;;28.50;99.90;;;;;;1808333;78;21061;-70
2023/07/04 05:23:16;;;;;;;7.53;3.05;;;28.50;99.90;;;;;;1840872;76;21178;-69
2023/07/04 05:25:50;;;;;;;5.47;2.30;;;28.60;99.90;;;;;;1889498;75;21060;-71
2023/07/04 05:28:22;;;;;;;6.80;2.02;;;28.70;99.90;;;;;;1840634;76;21522;-71
2023/07/04 05:31:02;;;;;;;5.97;2.35;;;28.70;99.90;;;;;;1842979;76;21096;-71
2023/07/04 05:36:14;;;;;;;4.83;2.00;;;28.80;99.90;;;;;;1842740;76;21076;-72
2023/07/04 05:38:59;;;;;;;9.43;2.70;;;28.80;99.90;;;;;;1833797;76;21120;-71
2023/07/04 05:41:36;;;;;;;7.37;2.15;;;28.80;99.90;;;;;;1816085;78;21111;-71
2023/07/04 05:44:10;;;;;;;5.35;1.95;;;28.80;99.90;;;;;;1848428;76;21067;-71
2023/07/04 05:46:55;;;;;;;4.47;1.50;;;28.80;99.90;;;;;;1796985;78;21119;-70
2023/07/04 05:49:28;;;;;;;5.47;2.30;;;28.90;99.90;;;;;;1842224;76;21145;-71
2023/07/04 05:52:02;;;;;;;5.65;2.22;;;29.00;99.90;;;;;;1786271;78;21221;-70
2023/07/04 05:54:33;;;;;;;4.78;1.95;;;29.00;99.90;;;;;;1805750;78;21058;-72
2023/07/04 05:57:06;;;;;;;6.25;2.15;;;29.00;99.90;;;;;;1837917;78;21141;-71
2023/07/04 05:59:39;;;;;;;7.78;2.10;;;29.10;99.90;;;;;;1840258;76;21129;-72
2023/07/04 06:02:13;;;;;;;4.95;1.75;;;29.20;99.90;;;;;;1801262;77;21083;-70
2023/07/04 06:04:47;;;;;;;4.45;2.10;;;29.20;99.90;;;;;;1806128;77;21212;-71
2023/07/04 06:07:19;;;;;;;8.73;2.17;;;29.20;99.90;;;;;;1838649;76;21038;-72
2023/07/04 06:09:52;;;;;;;5.25;2.00;;;29.30;99.90;;;;;;1839043;76;21092;-72
2023/07/04 06:12:26;;;;;;;9.30;2.25;;;29.30;99.90;;;;;;1832659;78;21136;-72
2023/07/04 06:14:59;;;;;;;6.70;2.35;;;29.30;99.90;;;;;;1806210;78;21637;-72
2023/07/04 06:17:31;;;;;;;6.67;2.30;;;29.40;99.90;;;;;;1840690;76;21134;-72
2023/07/04 06:20:05;;;;;;;11.15;2.90;;;29.40;99.90;;;;;;1838273;76;21132;-70
2023/07/04 06:22:36;;;;;;;5.55;2.17;;;29.50;99.90;;;;;;1835738;76;21607;-70
2023/07/04 06:25:08;;;;;;;6.42;2.35;;;29.50;99.90;;;;;;1836444;76;21087;-70
2023/07/04 06:27:44;;;;;;;5.80;2.40;;;29.60;99.90;;;;;;1839970;76;21093;-70
2023/07/04 06:30:16;;;;;;;5.75;1.72;;;29.60;99.90;;;;;;1823878;77;21514;-70
2023/07/04 06:32:51;;;;;;;;;;;29.60;99.90;;;;;;1849946;76;21115;-70
2023/07/04 06:35:25;;;;;;;10.78;2.70;;;29.50;99.90;;;;;;1792116;78;20135;-70
2023/07/04 06:37:59;;;;;;;12.68;3.65;;;29.50;99.90;;;;;;1814528;76;21145;-69
2023/07/04 06:40:33;;;;;;;8.90;2.62;;;29.50;99.90;;;;;;1800543;78;21589;-70
2023/07/04 06:43:07;;;;;;;7.58;2.40;;;29.50;99.90;;;;;;1848043;75;21691;-70
2023/07/04 06:45:42;;;;;;;10.10;2.37;;;29.50;99.90;;;;;;1828309;76;21553;-73
2023/07/04 06:48:14;;;;;;;10.20;2.58;;;29.50;99.90;;;;;;1836708;76;21479;-71
2023/07/04 06:51:01;;;;;;;59.63;7.00;;;29.50;99.90;;;;;;1786707;78;21129;-71
2023/07/04 06:53:36;;;;;;;11.75;2.02;;;29.50;99.90;;;;;;1840859;76;21154;-70
2023/07/04 06:56:12;;;;;;;7.60;2.02;;;29.50;99.90;;;;;;1838312;76;21102;-70
2023/07/04 06:58:50;;;;;;;8.53;3.33;;;29.50;99.90;;;;;;1806509;78;21141;-71
2023/07/04 07:01:32;;;;;;;17.40;3.72;;;29.50;99.90;;;;;;1803119;78;21183;-72
2023/07/04 07:04:03;;;;;;;7.65;2.58;;;29.50;99.90;;;;;;1785447;79;21177;-72
2023/07/04 07:06:39;;;;;;;10.05;2.83;;;29.50;99.90;;;;;;1801839;78;21249;-70
2023/07/04 07:09:11;;;;;;;6.53;1.90;;;29.40;99.90;;;;;;1801000;78;21155;-70
2023/07/04 07:11:44;;;;;;;7.42;2.05;;;29.40;99.90;;;;;;1804157;78;21159;-71
2023/07/04 07:14:18;;;;;;;4.83;2.00;;;29.30;99.90;;;;;;1809053;77;21526;-70
2023/07/04 07:16:52;;;;;;;7.30;2.05;;;29.30;99.90;;;;;;1843090;76;21635;-69
2023/07/04 07:19:25;;;;;;;6.42;1.57;;;29.30;99.90;;;;;;1832915;76;21101;-71
2023/07/04 07:21:59;;;;;;;5.60;1.70;;;29.20;99.90;;;;;;1805050;77;21096;-69
2023/07/04 07:24:34;;;;;;;7.13;1.70;;;29.10;99.90;;;;;;1830656;76;21100;-70
2023/07/04 07:27:10;;;;;;;6.10;2.10;;;29.00;99.90;;;;;;1815496;76;21147;-69
2023/07/04 07:29:44;;;;;;;8.45;2.80;;;29.00;99.90;;;;;;1850025;76;21708;-68
2023/07/04 07:32:18;;;;;;;18.40;3.67;;;29.00;99.90;;;;;;1848184;76;21058;-69
2023/07/04 07:34:52;;;;;;;11.70;2.67;;;29.00;99.90;;;;;;1809318;77;21558;-70
2023/07/04 07:37:26;;;;;;;9.20;2.60;;;28.90;99.90;;;;;;1785891;78;21104;-70
2023/07/04 07:39:59;;;;;;;11.57;3.65;;;28.90;99.90;;;;;;1838207;76;21723;-68
2023/07/04 07:42:32;;;;;;;6.15;2.72;;;28.90;99.90;;;;;;1806563;79;21072;-69
2023/07/04 07:45:06;;;;;;;7.08;2.45;;;28.90;99.90;;;;;;1806399;77;21461;-69
2023/07/04 07:47:38;;;;;;;9.53;2.90;;;28.80;99.90;;;;;;1837798;76;21209;-68
2023/07/04 07:50:12;;;;;;;14.38;5.12;;;28.80;99.90;;;;;;1839686;76;21067;-68
2023/07/04 07:52:47;;;;;;;14.43;5.80;;;28.80;99.90;;;;;;1841497;76;21157;-71
2023/07/04 07:55:19;;;;;;;10.45;4.25;;;28.70;99.90;;;;;;1838820;76;21072;-70
2023/07/04 07:57:52;;;;;;;12.80;2.58;;;28.70;99.90;;;;;;1839891;78;21449;-67
2023/07/04 08:00:26;;;;;;;12.53;4.28;;;28.60;99.90;;;;;;1836373;76;21145;-71
2023/07/04 08:03:00;;;;;;;9.10;2.52;;;28.60;99.90;;;;;;1838338;76;21164;-69
2023/07/04 08:05:45;;;;;;;8.05;2.17;;;28.60;99.90;;;;;;1843786;76;21163;-71
2023/07/04 08:08:18;;;;;;;8.48;2.27;;;28.60;99.90;;;;;;1842300;76;21124;-68
2023/07/04 08:10:49;;;;;;;7.60;2.00;;;28.60;99.90;;;;;;1810564;78;21520;-70
2023/07/04 08:13:38;;;;;;;26.00;6.45;;;28.60;99.90;;;;;;1841105;77;21086;-69
2023/07/04 08:16:14;;;;;;;22.05;4.03;;;28.60;99.90;;;;;;1818384;78;21065;-71
2023/07/04 08:18:45;;;;;;;13.00;2.92;;;28.60;99.90;;;;;;1799681;78;21122;-71
2023/07/04 08:21:16;;;;;;;7.75;2.17;;;28.60;99.90;;;;;;1844290;76;21202;-70
2023/07/04 08:23:49;;;;;;;7.35;2.27;;;28.60;99.90;;;;;;1842983;76;21109;-72
2023/07/04 08:26:25;;;;;;;14.07;3.15;;;28.60;99.90;;;;;;1803448;78;21162;-70
2023/07/04 08:28:58;;;;;;;10.88;3.00;;;28.60;99.90;;;;;;1839591;76;21537;-68
2023/07/04 08:31:31;;;;;;;15.63;3.40;;;28.70;99.90;;;;;;1900485;75;21095;-71
2023/07/04 08:34:10;;;;;;;10.50;3.47;;;28.80;99.90;;;;;;1890245;75;21242;-68
2023/07/04 08:36:41;;;;;;;6.83;2.33;;;28.80;99.90;;;;;;1841457;76;21099;-69
2023/07/04 08:39:13;;;;;;;5.35;2.20;;;28.90;99.90;;;;;;1847706;76;21191;-67
2023/07/04 08:41:59;;;;;;;15.08;3.12;;;29.00;99.90;;;;;;1844030;75;21187;-69
2023/07/04 08:44:41;;;;;;;6.78;2.00;;;29.00;99.90;;;;;;1840885;76;21071;-67
2023/07/04 08:47:18;;;;;;;7.03;1.80;;;29.00;99.90;;;;;;1882875;75;21553;-68
2023/07/04 08:49:57;;;;;;;17.00;3.98;;;29.10;99.90;;;;;;1883183;75;21183;-67
2023/07/04 08:52:32;;;;;;;10.05;3.00;;;29.10;99.90;;;;;;1887959;75;21215;-68
2023/07/04 08:55:06;;;;;;;5.33;2.10;;;29.10;99.90;;;;;;1896088;74;21158;-70
2023/07/04 08:57:52;;;;;;;5.35;2.10;;;29.20;99.90;;;;;;1810670;77;21124;-68
2023/07/04 09:00:33;;;;;;;13.48;4.00;;;29.20;99.90;;;;;;1843593;77;21630;-69
2023/07/04 09:03:20;;;;;;;22.90;5.17;;;29.20;99.90;;;;;;1846056;76;21130;-68
2023/07/04 09:06:14;;;;;;;17.55;4.83;;;29.20;99.90;;;;;;1788013;80;21107;-68
2023/07/04 09:09:07;;;;;;;8.30;2.40;;;29.20;99.90;;;;;;1846299;76;21075;-71
2023/07/04 09:11:43;;;;;;;16.17;4.75;;;29.20;99.90;;;;;;1851797;76;21157;-69
2023/07/04 09:14:35;;;;;;;10.20;4.42;;;29.20;99.90;;;;;;1830539;77;21559;-69
2023/07/04 09:17:12;;;;;;;8.28;2.75;;;29.30;99.90;;;;;;1848842;77;21233;-67
2023/07/04 09:19:46;;;;;;;20.77;4.90;;;29.30;99.90;;;;;;1844055;76;21115;-70
2023/07/04 09:22:20;;;;;;;7.12;3.70;;;29.30;99.90;;;;;;1848287;77;21612;-68
2023/07/04 09:24:54;;;;;;;5.15;2.12;;;29.30;99.90;;;;;;1843682;77;21096;-69
2023/07/04 09:27:31;;;;;;;25.72;6.00;;;29.30;99.90;;;;;;1845666;77;21648;-69
2023/07/04 09:30:06;;;;;;;45.03;9.95;;;29.20;99.90;;;;;;1803684;78;21522;-69
2023/07/04 09:33:04;;;;;;;28.42;6.80;;;29.30;99.90;;;;;;1847326;76;21107;-69
2023/07/04 09:35:37;;;;;;;26.65;6.00;;;29.20;99.90;;;;;;1843629;77;21576;-67
2023/07/04 09:38:09;;;;;;;13.32;4.40;;;29.30;99.90;;;;;;1835229;77;21143;-70
2023/07/04 09:40:52;;;;;;;38.35;8.63;;;29.30;99.90;;;;;;1835268;76;21118;-71
2023/07/04 09:43:29;;;;;;;134.87;29.82;;;29.30;99.90;;;;;;1868150;74;21230;-68
2023/07/04 09:46:20;;;;;;;47.47;9.70;;;29.30;99.90;;;;;;1894420;75;21131;-68
2023/07/04 09:48:54;;;;;;;17.82;4.60;;;29.30;99.90;;;;;;1887841;74;21212;-68
2023/07/04 09:51:30;;;;;;;13.18;4.10;;;29.30;99.90;;;;;;1804549;77;21128;-69
2023/07/04 09:54:18;;;;;;;11.03;2.90;;;29.30;99.90;;;;;;1766916;78;21157;-68
2023/07/04 09:56:50;;;;;;;26.85;5.47;;;29.30;99.90;;;;;;1818253;77;21115;-68
2023/07/04 09:59:27;;;;;;;16.62;4.78;;;29.30;99.90;;;;;;1821934;77;21135;-69
2023/07/04 10:02:05;;;;;;;10.35;3.75;;;29.30;99.90;;;;;;1820571;76;21060;-68
2023/07/04 10:04:40;;;;;;;16.00;5.33;;;29.20;99.90;;;;;;1798091;78;21506;-67
2023/07/04 10:07:15;;;;;;;27.98;5.03;;;29.20;99.90;;;;;;1895746;74;21130;-69
2023/07/04 10:09:57;;;;;;;16.23;4.77;;;29.20;99.90;;;;;;1807719;78;21204;-70
2023/07/04 10:12:32;;;;;;;11.10;4.15;;;29.30;99.90;;;;;;1890159;75;21076;-68
2023/07/04 10:15:05;;;;;;;10.23;3.75;;;29.20;99.90;;;;;;1815130;78;21156;-67
2023/07/04 10:17:43;;;;;;;12.95;4.08;;;29.20;99.90;;;;;;1841157;76;21241;-69
2023/07/04 10:20:15;;;;;;;10.25;3.62;;;29.20;99.90;;;;;;1843464;76;21088;-68
2023/07/04 10:22:53;;;;;;;8.53;2.92;;;29.10;99.90;;;;;;1836154;76;21120;-70
2023/07/04 10:25:27;;;;;;;9.40;3.17;;;29.10;99.90;;;;;;1845484;76;21085;-68
2023/07/04 10:28:12;;;;;;;14.18;4.80;;;29.10;99.90;;;;;;1903639;75;21179;-68
2023/07/04 10:30:47;;;;;;;10.48;2.98;;;29.10;99.90;;;;;;1883922;75;21480;-68
2023/07/04 10:33:21;;;;;;;;;;;29.00;99.90;;;;;;1884870;75;21158;-68
2023/07/04 10:35:57;;;;;;;17.10;3.80;;;29.00;99.90;;;;;;1881304;74;20129;-67
2023/07/04 10:38:39;;;;;;;8.55;3.20;;;29.10;99.90;;;;;;1875825;76;21097;-69
2023/07/04 10:41:26;;;;;;;8.48;2.92;;;29.00;99.90;;;;;;1831086;78;21095;-67
2023/07/04 10:44:02;;;;;;;12.33;3.55;;;29.00;99.90;;;;;;1821449;76;21100;-68
2023/07/04 10:46:37;;;;;;;9.63;3.52;;;29.00;99.90;;;;;;1838768;76;21093;-69
2023/07/04 10:49:14;;;;;;;6.83;2.40;;;29.00;99.90;;;;;;1825932;76;21084;-68
2023/07/04 10:51:50;;;;;;;12.63;3.72;;;29.00;99.90;;;;;;1832823;76;21578;-68
2023/07/04 10:54:21;;;;;;;8.33;2.87;;;28.90;99.90;;;;;;1822731;78;21615;-67
2023/07/04 10:56:55;;;;;;;9.38;2.67;;;28.90;99.90;;;;;;1825311;76;21206;-67
2023/07/04 10:59:32;;;;;;;10.55;3.72;;;28.90;99.90;;;;;;1830814;75;21091;-67
2023/07/04 11:02:16;;;;;;;7.73;3.40;;;28.80;99.90;;;;;;1840751;76;21115;-69
2023/07/04 11:04:50;;;;;;;10.88;3.37;;;28.80;99.90;;;;;;1839093;76;21155;-67
2023/07/04 11:07:25;;;;;;;6.17;2.85;;;28.80;99.90;;;;;;1835035;76;21056;-68
2023/07/04 11:10:00;;;;;;;7.33;3.45;;;28.80;99.90;;;;;;1831119;76;21096;-67
2023/07/04 11:12:34;;;;;;;14.47;3.60;;;28.80;99.90;;;;;;1840451;76;21260;-69
2023/07/04 11:15:10;;;;;;;8.10;3.12;;;28.80;99.90;;;;;;1836070;76;21232;-67
2023/07/04 11:17:43;;;;;;;9.48;3.35;;;28.80;99.90;;;;;;1835193;76;21138;-80
2023/07/04 11:20:21;;;;;;;8.43;3.30;;;28.80;99.90;;;;;;1833156;76;21097;-81
2023/07/04 11:23:04;;;;;;;12.37;3.75;;;28.80;99.90;;;;;;1826944;76;21092;-83
2023/07/04 11:26:09;;;;;;;9.58;3.80;;;28.70;99.90;;;;;;1835598;76;21163;-81
2023/07/04 11:28:46;;;;;;;9.73;3.72;;;28.70;99.90;;;;;;1788194;78;21514;-81
2023/07/04 11:31:36;;;;;;;6.30;3.33;;;28.70;99.90;;;;;;1815658;79;21105;-80
2023/07/04 11:34:10;;;;;;;7.10;3.67;;;28.70;99.90;;;;;;1822556;77;21142;-79
2023/07/04 11:36:54;;;;;;;11.12;4.97;;;28.60;99.90;;;;;;1839774;76;21072;-81
2023/07/04 11:39:31;;;;;;;8.13;3.35;;;28.60;99.90;;;;;;1841783;76;21072;-79
2023/07/04 11:42:17;;;;;;;9.98;3.42;;;28.60;99.90;;;;;;1841909;76;21516;-82
2023/07/04 11:45:03;;;;;;;8.90;3.95;;;28.60;99.90;;;;;;1888818;75;21071;-79
2023/07/04 11:47:48;;;;;;;10.13;3.80;;;28.60;99.90;;;;;;1841087;76;21518;-77
2023/07/04 11:50:44;;;;;;;8.68;3.83;;;28.60;99.90;;;;;;1804232;78;21145;-79
2023/07/04 11:53:26;;;;;;;12.80;4.33;;;28.60;99.90;;;;;;1886921;75;21074;-80
2023/07/04 11:56:18;;;;;;;10.68;3.72;;;28.50;99.90;;;;;;1836464;76;21135;-80
2023/07/04 11:59:09;;;;;;;10.55;4.10;;;28.50;99.90;;;;;;1837350;77;21485;-81
2023/07/04 12:01:55;;;;;;;7.28;4.08;;;28.50;99.90;;;;;;1834471;76;21142;-82
2023/07/04 12:04:40;;;;;;;7.90;3.83;;;28.50;99.90;;;;;;1835781;76;21223;-82
2023/07/04 12:07:36;;;;;;;10.35;3.98;;;28.50;99.90;;;;;;1838358;76;21201;-82
2023/07/04 12:10:21;;;;;;;5.95;2.85;;;28.40;99.90;;;;;;1835762;77;21137;-81
2023/07/04 12:13:00;;;;;;;6.47;2.80;;;28.40;99.90;;;;;;1838649;76;21511;-80
2023/07/04 12:15:36;;;;;;;4.08;2.20;;;28.30;99.90;;;;;;1849033;76;21170;-79
2023/07/04 12:18:23;;;;;;;5.80;2.30;;;28.30;99.90;;;;;;1844997;76;21221;-83
2023/07/04 12:21:00;;;;;;;5.30;2.50;;;28.20;99.90;;;;;;1838240;76;21091;-81
2023/07/04 12:23:51;;;;;;;4.58;1.90;;;28.20;99.90;;;;;;1795274;78;21173;-80
2023/07/04 12:26:30;;;;;;;3.98;1.40;;;28.10;99.90;;;;;;1839246;76;21210;-79
2023/07/04 12:29:06;;;;;;;4.70;1.40;;;28.10;99.90;;;;;;1837733;76;21099;-81
2023/07/04 12:31:41;;;;;;;4.58;1.57;;;28.00;99.90;;;;;;1838159;76;21614;-81
2023/07/04 12:34:18;;;;;;;3.98;1.40;;;28.00;99.90;;;;;;1846118;76;21595;-78
2023/07/04 12:37:05;;;;;;;5.55;1.80;;;27.90;99.90;;;;;;1838079;76;21123;-81
2023/07/04 12:39:51;;;;;;;3.33;1.10;;;27.90;99.90;;;;;;1818162;77;21241;-81
2023/07/04 12:42:31;;;;;;;4.22;1.80;;;27.80;99.90;;;;;;1842254;76;21559;-79
2023/07/04 12:45:09;;;;;;;4.40;1.45;;;27.80;99.90;;;;;;1841590;76;21499;-80
2023/07/04 12:48:12;;;;;;;6.12;1.65;;;27.70;99.90;;;;;;1873101;74;21158;-80
2023/07/04 12:50:54;;;;;;;3.62;1.35;;;27.70;99.90;;;;;;1833188;77;21652;-79
2023/07/04 12:53:28;;;;;;;3.77;1.50;;;27.70;99.90;;;;;;1835758;76;21500;-81
2023/07/04 12:56:04;;;;;;;3.67;1.25;;;27.70;99.90;;;;;;1806516;78;21186;-81
2023/07/04 12:58:35;;;;;;;3.02;1.30;;;27.70;99.90;;;;;;1837412;77;21197;-78
2023/07/04 13:01:15;;;;;;;3.37;1.00;;;27.60;99.90;;;;;;1814372;78;21079;-80
2023/07/04 13:03:50;;;;;;;3.25;1.42;;;27.60;99.90;;;;;;1837967;76;21086;-78
2023/07/04 13:06:25;;;;;;;5.35;1.20;;;27.60;99.90;;;;;;1810117;78;21124;-83
2023/07/04 13:09:05;;;;;;;8.58;2.33;;;27.50;99.90;;;;;;1831309;76;21158;-81
2023/07/04 13:11:55;;;;;;;5.22;1.32;;;27.50;99.90;;;;;;1845081;77;21095;-80
2023/07/04 13:14:29;;;;;;;6.97;1.42;;;27.40;99.90;;;;;;1849545;76;21097;-80
2023/07/04 13:17:22;;;;;;;4.30;1.35;;;27.40;99.90;;;;;;1807278;78;21153;-80
2023/07/04 13:20:00;;;;;;;3.17;1.15;;;27.30;99.90;;;;;;1845533;77;21093;-78
2023/07/04 13:22:49;;;;;;;4.62;1.65;;;27.30;99.90;;;;;;1841022;78;21131;-80
2023/07/04 13:25:29;;;;;;;4.45;1.40;;;27.30;99.90;;;;;;1840220;76;21149;-82
2023/07/04 13:28:08;;;;;;;3.27;1.30;;;27.30;99.90;;;;;;1806427;78;21087;-79
2023/07/04 13:30:44;;;;;;;4.87;1.80;;;27.30;99.90;;;;;;1843551;76;21154;-80